• Join FlightAware (Why Join?)
  • Login
  • US Flag 
07:54PM EDT


 

Airport Tracker/Info


-or-


 

Live Flight TrackerFlight Track Log ✈ UCA3597 ✈ 07-May-2014 ✈ KIAD - KBGM

Flight Track Log - Related Links

Times and Time Zones

All times are in EDT time to prevent confusion due to time zone crossing. See the UCA3597 flight status page for this flight to view local times or setup timezone preferences in your user account.

Time Position Orientation Groundspeed Altitude Reporting Facility
EDT Latitude Longitude Course Direction KTS MPH feet Rate Location/Type
05:57PM 39.3568 -77.2823 19° North  Level Estimated
05:58PM 39.4250 -77.2525 19° North  Level Estimated
05:59PM 39.4932 -77.2226 19° North  Level Estimated
06:00PM 39.5614 -77.1927 19° North  Level Estimated
06:01PM 39.6296 -77.1627 19° North  Level Estimated
06:02PM 39.6977 -77.1326 19° North  Level Estimated
06:03PM 39.7659 -77.1025 19° North  Level Estimated
06:04PM 39.8340 -77.0723 19° North  Level Estimated
06:05PM 39.9022 -77.0421 19° North  Level Estimated
06:06PM 39.9703 -77.0118 19° North  Level Estimated
06:07PM 40.0385 -76.9815 19° North  Level Estimated
06:08PM 40.1066 -76.9511 19° North  Level Estimated
06:09PM 40.1747 -76.9206 19° North  Level Estimated
06:10PM 40.2428 -76.8901 19° North  Level Estimated
06:11PM 40.3109 -76.8595 19° North  Level Estimated
06:12PM 40.3790 -76.8288 19° North  Level Estimated
06:13PM 40.4471 -76.7981 19° North  Level Estimated
06:14PM 40.5151 -76.7673 19° North  Level Estimated
06:15PM 40.5832 -76.7365 19° North  Level Estimated
06:16PM 40.6513 -76.7056 19° North  Level Estimated
06:17PM 40.7193 -76.6746 19° North  Level Estimated
06:18PM 40.7874 -76.6436 19° North  Level Estimated
06:19PM 40.8554 -76.6125 19° North  Level Estimated
06:20PM 40.9234 -76.5814 19° North  Level Estimated
06:21PM 40.9914 -76.5501 19° North  Level Estimated
06:22PM 41.0594 -76.5188 19° North  Level Estimated
06:23PM 41.1274 -76.4875 19° North  Level Estimated
06:24PM 41.1954 -76.4561 19° North  Level Estimated
06:25PM 41.2634 -76.4246 19° North  Level Estimated
06:26PM 41.3314 -76.3930 19° North  Level Estimated
06:27PM 41.3994 -76.3614 19° North  Level Estimated
06:28PM 41.4673 -76.3298 19° North  Level Estimated
06:29PM 41.5353 -76.2980 19° North  Level Estimated
06:30PM 41.6032 -76.2662 19° North  Level Estimated
06:31PM 41.6711 -76.2343 19° North  Level Estimated
06:32PM 41.7391 -76.2024 19° North  Level Estimated
06:33PM 41.8070 -76.1703 19° North  Level Estimated
06:34PM 41.8749 -76.1383 19° North  Level Estimated
06:35PM 41.9428 -76.1061 19° North  Level Estimated
06:36PM 42.0107 -76.0739 19° North  Level Estimated
06:37PM 42.0785 -76.0416 19° North  Level Estimated
06:38PM 42.1464 -76.0093 19° North  Level Estimated
06:39PM 42.2084 -75.9796 19° North  Level Estimated
06:40PM 42.2084 -75.9796 North  Level Estimated
06:41PM 42.2084 -75.9796 North  Level Estimated
06:42PM 42.2084 -75.9796 North  Level Estimated
06:43PM 42.2084 -75.9796 North  Level Estimated
06:44PM 42.2084 -75.9796 North  Level Estimated
06:45PM 42.2084 -75.9796 North  Level Estimated
06:46PM 42.2084 -75.9796 North  Level Estimated
06:47PM 42.2084 -75.9796 North  Level Estimated
06:48PM 42.2084 -75.9796 North  Level Estimated
06:49PM 42.2084 -75.9796 North  Level Estimated
06:50PM 42.2084 -75.9796 North  Level Estimated
06:51PM 42.2084 -75.9796 North  Level Estimated
06:52PM 42.2084 -75.9796 North  Level Estimated
06:53PM 42.2084 -75.9796 North  Level Estimated
06:54PM 42.2084 -75.9796 North  Level Estimated
06:55PM 42.2084 -75.9796 North  Level Estimated